Time;durP1;ratioP1;P1;durP2;ratioP2;P2;SDS_P1;SDS_P2;PMS_P1;PMS_P2;Temp;Humidity;BMP_temperature;BMP_pressure;BME280_temperature;BME280_humidity;BME280_pressure;Samples;Min_cycle;Max_cycle;Signal;HPM_P1;HPM_P2
2022/01/09 00:00:47;;;;;;;1.67;1.13;;;7.70;99.90;;;;;;5013034;28;20215;-61
2022/01/09 00:03:14;;;;;;;2.10;0.93;;;7.80;99.90;;;;;;5012856;28;20214;-61
2022/01/09 00:05:40;;;;;;;1.47;0.90;;;7.80;99.90;;;;;;5012491;28;20269;-62
2022/01/09 00:08:08;;;;;;;1.83;0.63;;;7.70;99.90;;;;;;5013019;28;20257;-62
2022/01/09 00:10:36;;;;;;;2.00;0.60;;;7.50;99.90;;;;;;5012832;28;20299;-62
2022/01/09 00:13:02;;;;;;;0.57;0.53;;;7.50;99.90;;;;;;5012926;28;20269;-62
2022/01/09 00:15:29;;;;;;;0.80;0.57;;;7.50;99.90;;;;;;5013007;28;20213;-62
2022/01/09 00:17:56;;;;;;;1.23;0.63;;;7.50;99.90;;;;;;5013141;28;20203;-62
2022/01/09 00:20:22;;;;;;;0.63;0.60;;;7.40;99.90;;;;;;5038113;22;20285;-60
2022/01/09 00:22:51;;;;;;;0.87;0.73;;;7.40;99.90;;;;;;5012861;28;20195;-59
2022/01/09 00:25:21;;;;;;;0.83;0.60;;;7.40;99.90;;;;;;5012602;28;20207;-60
2022/01/09 00:27:49;;;;;;;1.67;0.50;;;7.50;99.90;;;;;;5012466;28;20277;-60
2022/01/09 00:30:18;;;;;;;0.73;0.60;;;7.50;99.90;;;;;;5012647;28;20227;-61
2022/01/09 00:32:45;;;;;;;1.00;0.70;;;7.50;99.90;;;;;;5012447;28;20223;-60
2022/01/09 00:35:13;;;;;;;0.57;0.50;;;7.50;99.90;;;;;;5012705;28;20615;-59
2022/01/09 00:37:40;;;;;;;0.90;0.60;;;7.70;99.90;;;;;;5012573;28;20210;-59
2022/01/09 00:40:08;;;;;;;0.67;0.50;;;7.70;99.90;;;;;;5012492;28;20231;-60
2022/01/09 00:42:37;;;;;;;0.50;0.47;;;7.70;99.90;;;;;;5012845;28;20207;-60
2022/01/09 00:45:04;;;;;;;0.40;0.40;;;7.70;99.90;;;;;;5012855;28;20215;-59
2022/01/09 00:47:31;;;;;;;0.33;0.33;;;7.70;99.90;;;;;;5012632;28;20211;-60
2022/01/09 00:49:58;;;;;;;0.40;0.40;;;7.80;99.90;;;;;;5012558;28;20664;-60
2022/01/09 00:52:25;;;;;;;0.77;0.40;;;7.70;99.90;;;;;;5012548;28;20242;-60
2022/01/09 00:54:52;;;;;;;1.03;0.50;;;7.60;99.90;;;;;;5012240;28;20210;-60
2022/01/09 00:57:18;;;;;;;0.40;0.30;;;7.60;99.90;;;;;;5012746;28;20229;-60
2022/01/09 00:59:46;;;;;;;0.70;0.50;;;7.60;99.90;;;;;;5012004;28;20231;-60
2022/01/09 01:02:13;;;;;;;0.30;0.23;;;7.50;99.90;;;;;;5012461;28;20635;-60
2022/01/09 01:04:40;;;;;;;0.80;0.50;;;7.60;99.90;;;;;;5011920;28;20582;-60
2022/01/09 01:07:07;;;;;;;0.50;0.30;;;7.60;99.90;;;;;;5012223;28;20264;-60
2022/01/09 01:09:34;;;;;;;0.20;0.20;;;7.50;99.90;;;;;;5012339;28;20231;-59
2022/01/09 01:12:02;;;;;;;0.97;0.40;;;7.50;99.90;;;;;;5012228;28;20222;-59
2022/01/09 01:14:31;;;;;;;0.60;0.60;;;7.40;99.90;;;;;;5011727;28;20227;-59
2022/01/09 01:16:59;;;;;;;0.53;0.40;;;7.40;99.90;;;;;;5012353;28;20207;-60
2022/01/09 01:19:26;;;;;;;0.43;0.37;;;7.50;99.90;;;;;;5012320;28;20245;-59
2022/01/09 01:21:53;;;;;;;0.43;0.33;;;7.50;99.90;;;;;;5012340;28;20233;-59
2022/01/09 01:24:21;;;;;;;1.03;0.47;;;7.40;99.90;;;;;;5011855;28;20207;-59
2022/01/09 01:26:48;;;;;;;0.47;0.30;;;7.40;99.90;;;;;;5012180;28;20281;-59
2022/01/09 01:29:15;;;;;;;1.07;0.23;;;7.50;99.90;;;;;;5012267;28;20235;-60
2022/01/09 01:31:42;;;;;;;0.57;0.47;;;7.50;99.90;;;;;;5012066;28;20211;-60
2022/01/09 01:34:12;;;;;;;0.70;0.50;;;7.50;99.90;;;;;;5011968;28;20269;-60
2022/01/09 01:36:39;;;;;;;0.47;0.40;;;7.50;99.90;;;;;;5012353;28;20203;-60
2022/01/09 01:39:06;;;;;;;0.43;0.33;;;7.50;99.90;;;;;;5013043;28;20314;-59
2022/01/09 01:41:32;;;;;;;0.30;0.30;;;7.40;99.90;;;;;;5015905;28;20257;-59
2022/01/09 01:43:59;;;;;;;0.73;0.40;;;7.50;99.90;;;;;;5015659;28;20241;-59
2022/01/09 01:46:26;;;;;;;0.67;0.50;;;7.50;99.90;;;;;;5015995;28;20213;-59
2022/01/09 01:48:52;;;;;;;0.73;0.50;;;7.50;99.90;;;;;;5016232;28;20210;-58
2022/01/09 01:51:21;;;;;;;0.60;0.30;;;7.50;99.90;;;;;;5015642;28;20715;-59
2022/01/09 01:53:48;;;;;;;0.30;0.20;;;7.40;99.90;;;;;;5015119;28;20230;-58
2022/01/09 01:56:19;;;;;;;0.40;0.30;;;7.50;99.90;;;;;;5015736;28;20254;-59
2022/01/09 01:58:46;;;;;;;1.90;0.60;;;7.60;99.90;;;;;;5015565;28;20206;-60
2022/01/09 02:01:13;;;;;;;0.30;0.30;;;7.70;99.90;;;;;;5015369;28;20207;-60
2022/01/09 02:03:40;;;;;;;0.40;0.30;;;7.70;99.90;;;;;;5015301;28;20210;-59
2022/01/09 02:06:07;;;;;;;0.23;0.23;;;7.70;99.90;;;;;;5015240;28;20581;-60
2022/01/09 02:08:36;;;;;;;0.70;0.30;;;7.70;99.90;;;;;;5015108;28;20207;-59
2022/01/09 02:11:03;;;;;;;0.20;0.20;;;7.80;99.90;;;;;;5015447;28;20238;-59
2022/01/09 02:13:31;;;;;;;0.23;0.10;;;7.80;99.90;;;;;;5015144;28;20231;-59
2022/01/09 02:16:00;;;;;;;0.30;0.20;;;7.90;99.90;;;;;;5015095;28;20206;-60
2022/01/09 02:18:27;;;;;;;0.30;0.30;;;7.90;99.90;;;;;;5015279;28;20211;-59
2022/01/09 02:20:55;;;;;;;0.80;0.47;;;7.90;99.90;;;;;;5014728;28;20595;-62
2022/01/09 02:23:21;;;;;;;0.20;0.20;;;7.80;99.90;;;;;;5014944;28;20199;-60
2022/01/09 02:25:49;;;;;;;0.60;0.40;;;7.90;99.90;;;;;;5014899;28;20502;-60
2022/01/09 02:28:16;;;;;;;0.20;0.20;;;7.90;99.90;;;;;;5015005;28;20209;-60
2022/01/09 02:30:44;;;;;;;1.37;0.40;;;7.90;99.90;;;;;;5015041;28;20285;-60
2022/01/09 02:33:15;;;;;;;0.30;0.30;;;7.90;99.90;;;;;;5014622;28;20252;-59
2022/01/09 02:35:41;;;;;;;0.30;0.30;;;7.80;99.90;;;;;;5014475;28;20207;-59
2022/01/09 02:38:09;;;;;;;0.20;0.20;;;7.90;99.90;;;;;;5014999;28;20207;-59
2022/01/09 02:40:36;;;;;;;0.10;0.10;;;7.80;99.90;;;;;;5014727;28;20223;-60
2022/01/09 02:43:03;;;;;;;0.43;0.30;;;7.80;99.90;;;;;;5014711;28;20261;-59
2022/01/09 02:45:30;;;;;;;0.43;0.20;;;7.80;99.90;;;;;;5014472;28;20207;-60
2022/01/09 02:47:59;;;;;;;0.30;0.20;;;7.80;99.90;;;;;;5014478;28;20207;-59
2022/01/09 02:50:34;;;;;;;0.20;0.20;;;7.80;99.90;;;;;;5014021;28;20698;-60
2022/01/09 02:53:12;;;;;;;0.43;0.30;;;7.80;99.90;;;;;;5014760;28;20233;-59
2022/01/09 02:55:40;;;;;;;0.73;0.20;;;7.70;99.90;;;;;;5014329;28;20217;-60
2022/01/09 02:58:07;;;;;;;0.07;0.07;;;7.70;99.90;;;;;;5014345;28;20210;-60
2022/01/09 03:00:37;;;;;;;0.20;0.10;;;7.60;99.90;;;;;;5014376;28;20226;-60
2022/01/09 03:03:04;;;;;;;0.10;0.10;;;7.60;99.90;;;;;;5014320;28;20203;-60
2022/01/09 03:05:31;;;;;;;0.10;0.10;;;7.70;99.90;;;;;;5014089;28;20207;-60
2022/01/09 03:08:00;;;;;;;0.30;0.10;;;7.70;99.90;;;;;;5014141;28;20202;-59
2022/01/09 03:10:27;;;;;;;0.37;0.20;;;7.80;99.90;;;;;;5014067;28;20227;-60
2022/01/09 03:12:57;;;;;;;0.27;0.10;;;7.80;99.90;;;;;;5014063;28;20225;-60
2022/01/09 03:15:25;;;;;;;0.30;0.20;;;7.80;99.90;;;;;;5013512;28;20425;-59
2022/01/09 03:17:52;;;;;;;0.10;0.10;;;7.80;99.90;;;;;;5014043;28;20207;-60
2022/01/09 03:20:22;;;;;;;0.20;0.10;;;7.90;99.90;;;;;;5013693;28;20281;-60
2022/01/09 03:22:49;;;;;;;0.27;0.20;;;7.90;99.90;;;;;;5013661;28;20214;-60
2022/01/09 03:25:16;;;;;;;0.53;0.20;;;8.10;99.90;;;;;;5013541;28;20280;-60
2022/01/09 03:27:46;;;;;;;1.80;0.60;;;8.00;99.90;;;;;;5013674;28;20719;-60
2022/01/09 03:30:14;;;;;;;0.10;0.10;;;8.00;99.90;;;;;;5013956;28;20223;-59
2022/01/09 03:32:42;;;;;;;0.87;0.30;;;8.00;99.90;;;;;;5013879;28;20356;-59
2022/01/09 03:35:11;;;;;;;0.53;0.20;;;8.10;99.90;;;;;;5013302;28;20229;-60
2022/01/09 03:37:39;;;;;;;0.87;0.60;;;8.10;99.90;;;;;;5013744;28;20210;-59
2022/01/09 03:40:08;;;;;;;0.97;0.70;;;8.10;99.90;;;;;;5013449;28;20230;-59
2022/01/09 03:42:34;;;;;;;0.20;0.20;;;8.10;99.90;;;;;;5013479;28;20237;-59
2022/01/09 03:45:01;;;;;;;0.97;0.53;;;8.20;99.90;;;;;;5013296;28;20199;-59
2022/01/09 03:47:29;;;;;;;0.30;0.30;;;8.20;99.90;;;;;;5013553;28;20210;-59
2022/01/09 03:49:56;;;;;;;0.57;0.30;;;8.20;99.90;;;;;;5013289;28;20227;-59
2022/01/09 03:52:27;;;;;;;0.53;0.13;;;8.20;99.90;;;;;;5013315;28;20207;-58
2022/01/09 03:54:54;;;;;;;0.47;0.30;;;8.10;99.90;;;;;;5012910;28;20618;-59
2022/01/09 03:57:20;;;;;;;1.03;0.30;;;8.10;99.90;;;;;;5013340;28;20299;-58
2022/01/09 03:59:47;;;;;;;0.13;0.13;;;8.10;99.90;;;;;;5013328;28;20253;-59
2022/01/09 04:02:14;;;;;;;0.00;0.00;;;8.10;99.90;;;;;;5012714;28;20233;-61
2022/01/09 04:04:42;;;;;;;0.30;0.30;;;8.00;99.90;;;;;;5012944;28;20207;-57
2022/01/09 04:07:10;;;;;;;0.10;0.10;;;8.00;99.90;;;;;;5012996;28;20257;-58
2022/01/09 04:09:40;;;;;;;0.10;0.10;;;8.00;99.90;;;;;;5013237;28;20235;-59
2022/01/09 04:12:15;;;;;;;0.67;0.30;;;7.90;99.90;;;;;;5013179;28;20206;-59
2022/01/09 04:14:42;;;;;;;0.40;0.30;;;8.00;99.90;;;;;;5012679;28;20233;-60
2022/01/09 04:17:14;;;;;;;1.30;0.23;;;8.00;99.90;;;;;;5013107;28;20230;-59
2022/01/09 04:19:42;;;;;;;0.00;0.00;;;7.90;99.90;;;;;;5012878;28;20238;-60
2022/01/09 04:22:08;;;;;;;0.10;0.10;;;7.80;99.90;;;;;;5013635;28;20211;-60
2022/01/09 04:24:35;;;;;;;0.47;0.17;;;7.90;99.90;;;;;;5012673;28;20701;-60
2022/01/09 04:27:02;;;;;;;0.20;0.20;;;7.90;99.90;;;;;;5012959;28;20206;-60
2022/01/09 04:29:29;;;;;;;0.10;0.10;;;7.90;99.90;;;;;;5012985;28;20231;-60
2022/01/09 04:31:55;;;;;;;0.47;0.10;;;7.90;99.90;;;;;;5012672;28;20214;-59
2022/01/09 04:34:22;;;;;;;0.20;0.13;;;7.80;99.90;;;;;;5012259;28;20218;-60
2022/01/09 04:36:50;;;;;;;0.10;0.10;;;7.80;99.90;;;;;;5012899;28;20207;-60
2022/01/09 04:39:17;;;;;;;0.10;0.10;;;7.90;99.90;;;;;;5012466;28;20630;-60
2022/01/09 04:41:44;;;;;;;0.77;0.20;;;7.90;99.90;;;;;;5012729;28;20215;-60
2022/01/09 04:44:10;;;;;;;0.40;0.20;;;7.80;99.90;;;;;;5012315;28;20574;-60
2022/01/09 04:46:42;;;;;;;0.10;0.10;;;7.80;99.90;;;;;;5012310;28;20211;-60
2022/01/09 04:49:09;;;;;;;0.27;0.13;;;7.70;99.90;;;;;;5012572;28;20233;-60
2022/01/09 04:51:36;;;;;;;0.20;0.13;;;7.80;99.90;;;;;;5012639;28;20209;-59
2022/01/09 04:54:05;;;;;;;0.10;0.00;;;7.70;99.90;;;;;;5012661;28;20321;-60
2022/01/09 04:56:32;;;;;;;0.33;0.10;;;7.70;99.90;;;;;;5012355;28;20211;-60
2022/01/09 04:58:58;;;;;;;0.20;0.20;;;7.70;99.90;;;;;;5012372;28;20215;-60
2022/01/09 05:01:25;;;;;;;0.00;0.00;;;7.70;99.90;;;;;;5012572;28;20206;-60
2022/01/09 05:03:52;;;;;;;0.50;0.10;;;7.70;99.90;;;;;;5012217;28;20214;-60
2022/01/09 05:06:20;;;;;;;1.10;0.00;;;7.60;99.90;;;;;;5012234;28;20676;-60
2022/01/09 05:08:46;;;;;;;0.30;0.10;;;7.50;99.90;;;;;;5012433;28;20218;-59
2022/01/09 05:11:14;;;;;;;0.20;0.10;;;7.60;99.90;;;;;;5012235;28;20261;-59
2022/01/09 05:13:41;;;;;;;0.23;0.07;;;7.50;99.90;;;;;;5012798;28;20240;-60
2022/01/09 05:16:08;;;;;;;0.47;0.10;;;7.30;99.90;;;;;;5015767;28;20229;-60
2022/01/09 05:18:41;;;;;;;0.20;0.17;;;7.30;99.90;;;;;;5016615;28;20222;-60
2022/01/09 05:21:08;;;;;;;0.43;0.00;;;7.20;99.90;;;;;;5016290;28;20206;-60
2022/01/09 05:23:35;;;;;;;0.10;0.10;;;7.10;99.90;;;;;;5016026;28;20210;-59
2022/01/09 05:26:01;;;;;;;0.43;0.20;;;7.10;99.90;;;;;;5015921;28;20214;-60
2022/01/09 05:28:30;;;;;;;0.00;0.00;;;7.00;99.90;;;;;;5015809;28;20203;-60
2022/01/09 05:30:56;;;;;;;0.57;0.17;;;7.00;99.90;;;;;;5016107;28;20285;-60
2022/01/09 05:33:23;;;;;;;0.27;0.10;;;7.00;99.90;;;;;;5015837;28;20548;-59
2022/01/09 05:35:50;;;;;;;0.10;0.10;;;7.00;99.90;;;;;;5015716;28;20227;-60
2022/01/09 05:38:18;;;;;;;0.27;0.13;;;6.90;99.90;;;;;;5015846;28;20260;-60
2022/01/09 05:40:45;;;;;;;0.33;0.20;;;6.70;99.90;;;;;;5015841;28;20231;-60
2022/01/09 05:43:12;;;;;;;0.23;0.20;;;6.60;99.90;;;;;;5015981;28;20211;-59
2022/01/09 05:45:40;;;;;;;0.53;0.30;;;6.60;99.90;;;;;;5015607;28;20680;-59
2022/01/09 05:48:07;;;;;;;0.03;0.03;;;6.50;99.90;;;;;;5015876;28;20461;-59
2022/01/09 05:50:34;;;;;;;0.37;0.20;;;6.50;99.90;;;;;;5015673;28;20230;-58
2022/01/09 05:53:01;;;;;;;0.00;0.00;;;6.40;99.90;;;;;;5015767;28;20207;-59
2022/01/09 05:55:29;;;;;;;0.30;0.13;;;6.50;99.90;;;;;;5015400;28;20304;-59
2022/01/09 05:57:56;;;;;;;0.00;0.00;;;6.50;99.90;;;;;;5015454;28;20627;-59
2022/01/09 06:00:23;;;;;;;0.50;0.20;;;6.40;99.90;;;;;;5015157;28;20235;-58
2022/01/09 06:02:51;;;;;;;3.10;0.30;;;6.40;99.90;;;;;;5015643;28;20260;-58
2022/01/09 06:05:18;;;;;;;0.37;0.20;;;6.30;99.90;;;;;;5015370;28;20629;-58
2022/01/09 06:07:45;;;;;;;0.40;0.20;;;6.20;99.90;;;;;;5015316;28;20210;-59
2022/01/09 06:10:12;;;;;;;0.20;0.20;;;6.20;99.90;;;;;;5015264;28;20301;-58
2022/01/09 06:12:39;;;;;;;0.50;0.27;;;6.20;99.90;;;;;;5015144;28;20682;-59
2022/01/09 06:15:07;;;;;;;0.50;0.20;;;6.20;99.90;;;;;;5014926;28;20718;-58
2022/01/09 06:17:36;;;;;;;2.00;0.80;;;6.20;99.90;;;;;;5015297;28;20202;-58
2022/01/09 06:20:05;;;;;;;1.17;0.70;;;6.20;99.90;;;;;;5046202;23;20326;-62
2022/01/09 06:22:32;;;;;;;2.13;0.80;;;6.20;99.90;;;;;;5034723;28;20225;-61
2022/01/09 06:24:58;;;;;;;1.23;0.50;;;6.20;99.90;;;;;;5033879;28;20206;-63
2022/01/09 06:27:25;;;;;;;1.90;0.70;;;6.20;99.90;;;;;;5034992;28;20204;-61
2022/01/09 06:29:53;;;;;;;2.13;0.87;;;6.20;99.90;;;;;;5034723;28;20230;-62
2022/01/09 06:32:20;;;;;;;3.63;1.00;;;6.20;99.90;;;;;;5034742;28;20203;-62
2022/01/09 06:34:46;;;;;;;1.40;0.70;;;6.30;99.90;;;;;;5034264;28;20218;-62
2022/01/09 06:37:15;;;;;;;3.20;1.20;;;6.30;99.90;;;;;;5034690;28;20214;-64
2022/01/09 06:39:42;;;;;;;3.87;1.03;;;6.30;99.90;;;;;;5034616;28;20234;-62
2022/01/09 06:42:10;;;;;;;3.50;0.80;;;6.30;99.90;;;;;;5034346;28;20241;-62
2022/01/09 06:44:37;;;;;;;2.47;0.67;;;6.40;99.90;;;;;;5034159;28;20209;-61
2022/01/09 06:47:04;;;;;;;3.40;1.37;;;6.60;99.90;;;;;;5034359;28;20207;-61
2022/01/09 06:49:30;;;;;;;5.90;1.30;;;6.60;99.90;;;;;;5034423;28;20315;-64
2022/01/09 06:51:57;;;;;;;4.23;0.77;;;6.60;99.90;;;;;;5033954;28;20233;-61
2022/01/09 06:54:25;;;;;;;1.50;0.50;;;6.60;99.90;;;;;;5034053;28;20202;-61
2022/01/09 06:56:52;;;;;;;1.17;0.80;;;6.60;99.90;;;;;;5034146;28;20206;-61
2022/01/09 06:59:18;;;;;;;2.63;0.87;;;6.60;99.90;;;;;;5034152;28;20269;-62
2022/01/09 07:01:45;;;;;;;1.50;0.80;;;6.60;99.90;;;;;;5034009;28;20568;-63
2022/01/09 07:04:12;;;;;;;2.17;0.63;;;6.60;99.90;;;;;;5033603;28;20743;-61
2022/01/09 07:06:39;;;;;;;1.77;0.80;;;6.60;99.90;;;;;;5033773;28;20602;-61
2022/01/09 07:09:06;;;;;;;2.93;0.50;;;6.60;99.90;;;;;;5033682;28;20598;-61
2022/01/09 07:11:34;;;;;;;0.90;0.40;;;6.70;99.90;;;;;;5033774;28;20218;-62
2022/01/09 07:14:01;;;;;;;1.13;0.57;;;6.70;99.90;;;;;;5033930;28;20206;-62
2022/01/09 07:16:28;;;;;;;0.93;0.63;;;6.70;99.90;;;;;;5033681;28;20226;-63
2022/01/09 07:18:55;;;;;;;0.50;0.40;;;6.70;99.90;;;;;;5033688;28;20211;-62
2022/01/09 07:21:22;;;;;;;1.03;0.50;;;6.60;99.90;;;;;;5035006;28;20237;-62
2022/01/09 07:23:48;;;;;;;2.13;0.50;;;6.60;99.90;;;;;;5035219;28;20217;-61
2022/01/09 07:26:15;;;;;;;1.27;0.40;;;6.60;99.90;;;;;;5034751;28;20199;-61
2022/01/09 07:28:43;;;;;;;2.90;0.40;;;6.60;99.90;;;;;;5034754;28;20620;-61
2022/01/09 07:31:10;;;;;;;1.67;0.50;;;6.70;99.90;;;;;;5034197;28;20229;-61
2022/01/09 07:33:37;;;;;;;3.17;0.83;;;6.70;99.90;;;;;;5034750;28;20273;-62
2022/01/09 07:36:04;;;;;;;2.53;0.63;;;6.70;99.90;;;;;;5034704;28;20253;-61
2022/01/09 07:38:30;;;;;;;2.03;1.30;;;6.70;99.90;;;;;;5036069;28;20206;-62
2022/01/09 07:40:57;;;;;;;4.00;1.70;;;6.70;99.90;;;;;;5034626;28;20230;-62
2022/01/09 07:43:24;;;;;;;1.77;0.50;;;6.80;99.90;;;;;;5034042;28;20615;-62
2022/01/09 07:45:52;;;;;;;2.90;0.93;;;6.80;99.90;;;;;;5034437;28;20203;-62
2022/01/09 07:48:21;;;;;;;4.47;1.20;;;6.80;99.90;;;;;;5033487;28;20210;-62
2022/01/09 07:50:47;;;;;;;2.63;0.90;;;6.90;99.90;;;;;;5033450;28;20253;-63
2022/01/09 07:53:15;;;;;;;5.10;1.60;;;6.90;99.90;;;;;;5033488;28;20206;-64
2022/01/09 07:55:42;;;;;;;2.10;0.80;;;6.90;99.90;;;;;;5032802;28;20230;-62
2022/01/09 07:58:09;;;;;;;4.33;1.40;;;6.90;99.90;;;;;;5033384;28;20210;-62
2022/01/09 08:00:36;;;;;;;4.47;1.20;;;6.90;99.90;;;;;;5033191;28;20292;-61
2022/01/09 08:03:04;;;;;;;7.87;1.57;;;7.00;99.90;;;;;;5033213;28;20213;-61
2022/01/09 08:05:30;;;;;;;7.10;1.67;;;6.90;99.90;;;;;;5032815;28;20222;-61
2022/01/09 08:07:57;;;;;;;5.87;1.83;;;7.00;99.90;;;;;;5033068;28;20252;-62
2022/01/09 08:10:24;;;;;;;3.10;1.20;;;7.10;99.90;;;;;;5033403;28;20237;-63
2022/01/09 08:12:51;;;;;;;8.87;2.70;;;7.10;99.90;;;;;;5034298;28;20301;-64
2022/01/09 08:15:17;;;;;;;2.90;1.20;;;7.10;99.90;;;;;;5036173;28;20222;-62
2022/01/09 08:17:45;;;;;;;4.30;1.40;;;7.20;99.90;;;;;;5035615;28;20210;-62
2022/01/09 08:20:15;;;;;;;3.83;1.77;;;7.20;99.90;;;;;;5033418;28;20740;-61
2022/01/09 08:22:42;;;;;;;3.80;1.30;;;7.30;99.90;;;;;;5033099;28;20252;-61
2022/01/09 08:25:09;;;;;;;5.33;1.63;;;7.50;99.90;;;;;;5032657;28;20617;-61
2022/01/09 08:27:36;;;;;;;4.67;1.73;;;7.40;99.90;;;;;;5032636;28;20588;-61
2022/01/09 08:30:04;;;;;;;2.53;1.10;;;7.40;99.90;;;;;;5032525;28;20744;-62
2022/01/09 08:32:31;;;;;;;5.27;1.27;;;7.40;99.90;;;;;;5032693;28;20206;-62
2022/01/09 08:34:58;;;;;;;6.13;3.00;;;7.50;99.90;;;;;;5032125;28;20206;-62
2022/01/09 08:37:26;;;;;;;4.17;1.30;;;7.40;99.90;;;;;;5032286;28;20269;-62
2022/01/09 08:39:53;;;;;;;7.37;1.90;;;7.50;99.90;;;;;;5032254;28;20230;-63
2022/01/09 08:42:19;;;;;;;4.23;1.30;;;7.50;99.90;;;;;;5032047;28;20202;-62
2022/01/09 08:44:46;;;;;;;5.30;1.40;;;7.50;99.90;;;;;;5032316;28;20217;-63
2022/01/09 08:47:13;;;;;;;4.10;1.43;;;7.50;99.90;;;;;;5032246;28;20257;-62
2022/01/09 08:49:39;;;;;;;8.47;1.80;;;7.50;99.90;;;;;;5032080;28;20749;-63
2022/01/09 08:52:06;;;;;;;4.83;1.30;;;7.40;99.90;;;;;;5032150;28;20564;-62
2022/01/09 08:54:35;;;;;;;9.13;1.60;;;7.50;99.90;;;;;;5031894;28;20582;-61
2022/01/09 08:57:01;;;;;;;6.10;1.63;;;7.40;99.90;;;;;;5031800;28;20230;-64
2022/01/09 08:59:28;;;;;;;4.93;1.77;;;7.40;99.90;;;;;;5032125;28;20648;-62
2022/01/09 09:01:56;;;;;;;5.17;1.40;;;7.40;99.90;;;;;;5032030;28;20210;-61
2022/01/09 09:04:24;;;;;;;9.53;2.20;;;7.50;99.90;;;;;;5031884;28;20781;-63
2022/01/09 09:06:51;;;;;;;6.83;1.70;;;7.50;99.90;;;;;;5032121;28;20202;-62
2022/01/09 09:09:18;;;;;;;5.00;1.30;;;7.50;99.90;;;;;;5032294;28;20217;-63
2022/01/09 09:11:48;;;;;;;4.50;1.63;;;7.50;99.90;;;;;;5031987;28;20740;-61
2022/01/09 09:14:14;;;;;;;5.20;1.60;;;7.50;99.90;;;;;;5031794;28;20598;-61
2022/01/09 09:16:41;;;;;;;5.73;1.37;;;7.60;99.90;;;;;;5031747;28;20222;-62
2022/01/09 09:19:08;;;;;;;3.63;1.33;;;7.70;99.90;;;;;;5031650;28;20206;-62
2022/01/09 09:21:35;;;;;;;7.60;1.50;;;7.60;99.90;;;;;;5031818;28;20276;-62
2022/01/09 09:24:02;;;;;;;6.20;2.00;;;7.60;99.90;;;;;;5031718;28;20210;-62
2022/01/09 09:26:29;;;;;;;5.60;1.20;;;7.70;99.90;;;;;;5031631;28;20210;-62
2022/01/09 09:28:57;;;;;;;4.00;1.60;;;7.70;99.90;;;;;;5031874;28;20210;-62
2022/01/09 09:31:25;;;;;;;7.30;1.60;;;7.70;99.90;;;;;;5031797;28;20272;-62
2022/01/09 09:33:52;;;;;;;6.30;1.53;;;7.80;99.90;;;;;;5031731;28;20210;-62
2022/01/09 09:36:21;;;;;;;4.23;1.30;;;7.80;99.90;;;;;;5031423;28;20241;-62
2022/01/09 09:38:48;;;;;;;7.53;1.83;;;7.90;99.90;;;;;;5034678;28;20494;-60
2022/01/09 09:41:15;;;;;;;4.70;1.57;;;8.00;99.90;;;;;;5051154;28;20439;-64
2022/01/09 09:43:41;;;;;;;5.10;1.50;;;8.00;99.90;;;;;;5051300;28;20607;-61
2022/01/09 09:46:09;;;;;;;5.10;1.63;;;8.00;99.90;;;;;;5051080;28;20202;-62
2022/01/09 09:48:36;;;;;;;4.97;1.93;;;8.10;99.90;;;;;;5051128;28;20251;-63
2022/01/09 09:51:03;;;;;;;6.27;2.63;;;8.10;99.90;;;;;;5050876;28;20251;-62
2022/01/09 09:53:29;;;;;;;5.63;1.40;;;8.20;99.90;;;;;;5052011;28;20206;-62
2022/01/09 09:55:56;;;;;;;15.40;10.03;;;8.20;99.90;;;;;;5051020;28;20596;-62
2022/01/09 09:58:23;;;;;;;4.07;1.50;;;8.20;99.90;;;;;;5051715;28;20210;-62
2022/01/09 10:00:54;;;;;;;4.23;1.70;;;8.20;99.90;;;;;;5053498;28;20229;-65
2022/01/09 10:03:30;;;;;;;5.63;1.10;;;8.20;99.90;;;;;;5055092;28;20221;-67
2022/01/09 10:05:57;;;;;;;4.80;1.30;;;8.10;99.90;;;;;;5055799;28;20201;-66
2022/01/09 10:08:36;;;;;;;3.73;1.07;;;8.10;99.90;;;;;;5055352;28;20665;-65
2022/01/09 10:11:13;;;;;;;5.60;1.30;;;8.00;99.90;;;;;;5055012;28;20357;-63
2022/01/09 10:13:40;;;;;;;7.23;1.50;;;7.90;99.90;;;;;;5055097;28;20300;-70
2022/01/09 10:16:09;;;;;;;3.03;1.30;;;8.00;99.90;;;;;;5054371;28;20271;-65
2022/01/09 10:18:41;;;;;;;4.67;1.50;;;8.00;99.90;;;;;;5055144;28;20206;-61
2022/01/09 10:21:10;;;;;;;7.00;1.97;;;8.10;99.90;;;;;;5054897;28;20233;-62
2022/01/09 10:23:57;;;;;;;2.77;1.10;;;7.90;99.90;;;;;;5055034;28;20209;-69
2022/01/09 10:26:24;;;;;;;3.93;1.13;;;7.90;99.90;;;;;;5054962;28;20212;-66
2022/01/09 10:28:51;;;;;;;4.33;1.13;;;7.90;99.90;;;;;;5055038;28;20564;-64
2022/01/09 10:31:19;;;;;;;11.77;1.63;;;7.90;99.90;;;;;;5054768;28;20704;-64
2022/01/09 10:34:03;;;;;;;5.70;1.50;;;8.00;99.90;;;;;;5054774;28;20202;-65
2022/01/09 10:36:34;;;;;;;4.27;1.50;;;8.20;99.90;;;;;;5054279;28;20221;-65
2022/01/09 10:39:05;;;;;;;7.07;1.53;;;8.40;99.90;;;;;;5054223;28;20205;-64
2022/01/09 10:41:56;;;;;;;3.97;1.40;;;8.40;99.90;;;;;;5054397;28;20572;-66
2022/01/09 10:44:27;;;;;;;4.37;1.17;;;8.60;99.90;;;;;;5054499;28;20745;-64
2022/01/09 10:46:56;;;;;;;4.67;1.30;;;8.80;99.90;;;;;;5054503;28;20251;-65
2022/01/09 10:49:35;;;;;;;5.43;1.70;;;8.90;99.90;;;;;;5054146;28;20233;-63
2022/01/09 10:52:17;;;;;;;3.87;1.30;;;9.00;99.90;;;;;;5054632;28;20206;-63
2022/01/09 10:54:46;;;;;;;8.00;3.00;;;9.00;99.90;;;;;;5054325;28;20519;-64
2022/01/09 10:57:14;;;;;;;7.10;1.40;;;9.10;99.90;;;;;;5053999;28;20601;-64
2022/01/09 10:59:41;;;;;;;4.63;1.63;;;9.20;99.90;;;;;;5053893;28;20274;-64
2022/01/09 11:02:10;;;;;;;5.07;2.07;;;9.20;99.90;;;;;;5053691;28;20206;-63
2022/01/09 11:04:38;;;;;;;5.03;1.50;;;9.30;99.90;;;;;;5053969;28;20209;-65
2022/01/09 11:07:06;;;;;;;3.83;1.40;;;9.30;99.90;;;;;;5054029;28;20638;-64
2022/01/09 11:09:33;;;;;;;2.77;0.97;;;9.40;99.90;;;;;;5054019;28;20222;-63
2022/01/09 11:12:03;;;;;;;5.00;2.43;;;9.30;99.90;;;;;;5054343;28;20670;-63
2022/01/09 11:14:34;;;;;;;3.70;1.30;;;9.30;99.90;;;;;;5057326;28;20624;-64
2022/01/09 11:17:05;;;;;;;6.10;1.63;;;9.20;99.90;;;;;;5055336;28;20609;-63
2022/01/09 11:19:32;;;;;;;3.33;1.00;;;9.00;99.90;;;;;;5055134;28;20280;-64
2022/01/09 11:22:03;;;;;;;1.63;0.70;;;9.10;99.90;;;;;;5054074;28;20300;-64
2022/01/09 11:25:01;;;;;;;2.77;1.00;;;9.10;99.90;;;;;;5053790;28;20236;-63
2022/01/09 11:27:45;;;;;;;2.10;0.93;;;9.20;99.90;;;;;;5053425;28;20204;-63
2022/01/09 11:30:19;;;;;;;3.63;1.00;;;9.20;99.90;;;;;;5053644;28;20230;-64
2022/01/09 11:32:56;;;;;;;4.90;1.23;;;9.30;99.90;;;;;;5053472;28;20673;-63
2022/01/09 11:35:32;;;;;;;2.53;0.90;;;9.30;99.90;;;;;;5053381;28;20268;-61
2022/01/09 11:38:13;;;;;;;4.60;2.00;;;9.30;99.90;;;;;;5053506;28;20741;-64
2022/01/09 11:40:39;;;;;;;4.53;1.17;;;9.40;99.90;;;;;;5053489;28;20234;-64
2022/01/09 11:43:09;;;;;;;4.37;1.30;;;9.50;99.90;;;;;;5057684;28;20259;-64
2022/01/09 11:45:41;;;;;;;4.60;1.20;;;9.50;99.90;;;;;;5057834;28;20665;-63
2022/01/09 11:48:08;;;;;;;3.00;1.47;;;9.30;99.90;;;;;;5053698;28;20198;-64
2022/01/09 11:50:36;;;;;;;4.87;1.63;;;9.20;99.90;;;;;;5053456;28;20222;-62
2022/01/09 11:53:04;;;;;;;5.10;2.53;;;9.20;99.90;;;;;;5053202;28;20216;-62
2022/01/09 11:55:37;;;;;;;7.67;3.77;;;9.20;99.90;;;;;;5052872;28;20209;-62
2022/01/09 11:58:08;;;;;;;6.83;1.77;;;9.20;99.90;;;;;;5052755;28;20225;-62
2022/01/09 12:00:37;;;;;;;3.30;1.60;;;9.40;99.90;;;;;;5053110;28;20222;-64
2022/01/09 12:03:34;;;;;;;4.60;1.57;;;9.60;99.90;;;;;;5053172;28;20205;-64
2022/01/09 12:06:02;;;;;;;3.93;1.20;;;9.90;99.90;;;;;;5052702;28;20206;-64
2022/01/09 12:09:04;;;;;;;4.20;1.30;;;10.20;99.90;;;;;;5052871;28;20206;-64
2022/01/09 12:12:06;;;;;;;4.83;1.33;;;10.30;99.90;;;;;;5052984;28;20669;-62
2022/01/09 12:14:58;;;;;;;5.10;1.75;;;10.40;99.90;;;;;;5048297;28;20961;-64
2022/01/09 12:17:43;;;;;;;5.73;1.93;;;10.30;99.90;;;;;;5046166;28;20321;-63
2022/01/09 12:20:24;;;;;;;5.67;1.97;;;10.10;99.90;;;;;;5051554;23;20231;-58
2022/01/09 12:23:02;;;;;;;7.80;1.67;;;9.60;99.90;;;;;;5023239;28;20209;-60
2022/01/09 12:25:50;;;;;;;5.90;1.90;;;9.40;99.90;;;;;;5031984;28;20516;-57
2022/01/09 12:28:20;;;;;;;4.13;1.60;;;9.20;99.90;;;;;;5032114;28;20297;-57
2022/01/09 12:30:50;;;;;;;4.37;1.87;;;9.20;99.90;;;;;;5032369;28;20597;-57
2022/01/09 12:33:54;;;;;;;7.67;2.10;;;9.20;99.90;;;;;;5032152;28;20202;-57
2022/01/09 12:36:31;;;;;;;5.53;1.60;;;9.30;99.90;;;;;;5032444;28;20213;-57
2022/01/09 12:38:59;;;;;;;6.07;1.40;;;9.10;99.90;;;;;;5032553;28;20210;-61
2022/01/09 12:41:29;;;;;;;5.50;1.70;;;8.80;99.90;;;;;;5032532;28;20276;-57
2022/01/09 12:44:00;;;;;;;5.13;1.23;;;8.30;99.90;;;;;;5020650;28;20215;-57
2022/01/09 12:46:28;;;;;;;8.87;2.23;;;8.00;99.90;;;;;;5011405;28;20202;-58
2022/01/09 12:48:57;;;;;;;6.13;1.97;;;7.70;99.90;;;;;;5012560;28;20230;-53
2022/01/09 12:51:27;;;;;;;7.10;1.90;;;7.60;99.90;;;;;;5011982;28;20231;-54
2022/01/09 12:53:56;;;;;;;6.03;1.87;;;7.60;99.90;;;;;;5012451;28;20219;-53
2022/01/09 12:56:27;;;;;;;9.03;2.00;;;7.40;99.90;;;;;;5011888;28;20207;-55
2022/01/09 12:58:56;;;;;;;5.50;1.97;;;7.30;99.90;;;;;;5012349;28;20666;-54
2022/01/09 13:01:25;;;;;;;5.43;1.83;;;7.40;99.90;;;;;;5012238;28;20334;-59
2022/01/09 13:03:54;;;;;;;5.20;1.63;;;7.50;99.90;;;;;;5011629;28;20273;-56
2022/01/09 13:06:27;;;;;;;5.63;2.40;;;7.70;99.90;;;;;;5011021;28;20211;-59